Time;durP1;ratioP1;P1;durP2;ratioP2;P2;SDS_P1;SDS_P2;PMS_P1;PMS_P2;Temp;Humidity;BMP_temperature;BMP_pressure;BME280_temperature;BME280_humidity;BME280_pressure;Samples;Min_cycle;Max_cycle;Signal;HPM_P1;HPM_P2
2022/12/15 00:38:43;;;;;;;0.60;0.30;;;26.60;48.70;;;;;;4936452;29;20191;-70
2022/12/15 00:41:16;;;;;;;1.77;0.53;;;26.20;49.20;;;;;;4936252;29;20216;-67
2022/12/15 00:43:44;;;;;;;3.80;0.50;;;26.40;48.70;;;;;;4936529;29;20187;-68
2022/12/15 00:48:57;;;;;;;0.70;0.40;;;25.80;44.90;;;;;;4936798;29;20281;-67
2022/12/15 01:21:45;;;;;;;0.37;0.30;;;25.90;43.90;;;;;;4932896;29;20291;-69
2022/12/15 01:24:13;;;;;;;1.03;0.40;;;26.50;43.80;;;;;;4934470;29;20187;-70
2022/12/15 01:26:40;;;;;;;1.70;0.30;;;27.30;42.90;;;;;;4933833;29;20188;-69
2022/12/15 01:29:07;;;;;;;3.07;0.47;;;27.00;41.90;;;;;;4933555;29;20192;-70
2022/12/15 01:31:35;;;;;;;0.40;0.30;;;27.10;41.90;;;;;;4934624;29;20187;-69
2022/12/15 01:34:02;;;;;;;1.03;0.43;;;27.10;41.70;;;;;;4934398;29;20275;-69
2022/12/15 01:36:30;;;;;;;0.20;0.20;;;27.20;45.40;;;;;;4934475;29;20184;-70
2022/12/15 01:38:57;;;;;;;2.40;0.50;;;27.70;41.90;;;;;;4934290;29;20321;-69
2022/12/15 01:41:25;;;;;;;0.90;0.33;;;26.90;38.10;;;;;;4934409;29;20215;-69
2022/12/15 01:43:52;;;;;;;2.50;0.30;;;25.30;37.70;;;;;;4932861;29;20184;-69
2022/12/15 01:46:22;;;;;;;1.47;0.30;;;24.80;40.10;;;;;;4934746;29;20185;-69
2022/12/15 01:48:59;;;;;;;0.47;0.30;;;24.60;39.10;;;;;;4934600;29;20172;-70
2022/12/15 01:51:33;;;;;;;0.30;0.30;;;25.40;44.30;;;;;;4933866;29;20184;-70
2022/12/15 01:54:09;;;;;;;2.37;0.33;;;26.30;41.90;;;;;;4934556;29;20188;-70
2022/12/15 01:57:04;;;;;;;0.97;0.30;;;26.50;36.70;;;;;;4915786;29;20236;-70
2022/12/15 01:59:42;;;;;;;0.73;0.30;;;27.00;34.20;;;;;;4927024;29;20562;-69
2022/12/15 02:02:10;;;;;;;0.60;0.30;;;27.10;37.70;;;;;;4934034;29;20236;-71
2022/12/15 02:04:38;;;;;;;0.50;0.40;;;26.80;37.70;;;;;;4933196;29;20185;-70
2022/12/15 02:07:06;;;;;;;0.60;0.30;;;26.00;36.60;;;;;;4933986;29;20189;-70
2022/12/15 02:09:33;;;;;;;1.20;0.40;;;25.90;37.30;;;;;;4934139;29;20184;-70
2022/12/15 02:12:27;;;;;;;0.73;0.50;;;26.50;37.60;;;;;;4934196;29;20271;-70
2022/12/15 02:15:19;;;;;;;1.50;0.50;;;26.80;37.40;;;;;;4934176;29;20711;-69
2022/12/15 02:17:55;;;;;;;1.33;0.50;;;26.80;34.70;;;;;;4934483;29;20192;-70
2022/12/15 02:20:25;;;;;;;0.30;0.30;;;26.30;35.70;;;;;;4934133;29;20267;-71
2022/12/15 02:22:58;;;;;;;1.17;0.40;;;26.40;37.10;;;;;;4933990;29;20199;-70
2022/12/15 02:25:58;;;;;;;3.77;0.50;;;26.90;39.00;;;;;;4934397;29;20206;-71
2022/12/15 02:28:58;;;;;;;1.40;0.67;;;26.70;34.50;;;;;;4933921;29;20185;-69
2022/12/15 02:31:48;;;;;;;0.63;0.30;;;26.70;32.70;;;;;;4937994;29;20200;-68
2022/12/15 02:34:44;;;;;;;0.93;0.40;;;26.90;31.90;;;;;;4918936;29;20185;-69
2022/12/15 02:37:30;;;;;;;0.37;0.33;;;26.70;36.90;;;;;;4916708;29;20638;-69
2022/12/15 02:39:58;;;;;;;1.07;0.40;;;27.10;36.20;;;;;;4918724;29;20178;-69
2022/12/15 02:42:28;;;;;;;2.33;0.30;;;26.90;36.40;;;;;;4924785;29;20216;-68
2022/12/15 02:45:08;;;;;;;0.60;0.30;;;27.70;37.20;;;;;;4937061;29;20563;-70
2022/12/15 02:48:10;;;;;;;2.70;0.30;;;27.50;31.80;;;;;;4918690;29;20659;-70
2022/12/15 02:50:47;;;;;;;0.50;0.40;;;27.10;35.20;;;;;;4918014;29;20181;-70
2022/12/15 02:53:40;;;;;;;1.27;0.60;;;27.30;35.80;;;;;;4934091;29;20665;-69
2022/12/15 02:56:50;;;;;;;0.73;0.30;;;28.40;35.00;;;;;;4937337;29;20666;-70
2022/12/15 02:59:28;;;;;;;3.20;0.40;;;28.60;33.80;;;;;;4908690;29;20212;-69
2022/12/15 03:02:05;;;;;;;1.03;0.30;;;28.00;32.40;;;;;;4925706;29;20216;-70
2022/12/15 03:04:33;;;;;;;1.40;0.40;;;27.30;30.10;;;;;;4937167;29;20177;-69
2022/12/15 03:07:08;;;;;;;3.50;0.40;;;27.30;32.30;;;;;;4936499;29;20188;-70
2022/12/15 03:09:36;;;;;;;0.57;0.30;;;27.10;32.50;;;;;;4937224;29;20291;-70
2022/12/15 03:12:03;;;;;;;0.57;0.30;;;26.70;33.50;;;;;;4937021;29;20181;-71
2022/12/15 03:14:31;;;;;;;1.50;0.40;;;26.70;31.70;;;;;;4936860;29;20177;-68
2022/12/15 03:16:58;;;;;;;4.10;0.60;;;27.00;33.00;;;;;;4936026;29;20191;-68
2022/12/15 03:19:25;;;;;;;3.93;0.40;;;28.00;32.30;;;;;;4937104;29;20177;-68
2022/12/15 03:21:53;;;;;;;0.70;0.20;;;28.10;30.50;;;;;;4936322;29;20216;-68
2022/12/15 03:24:20;;;;;;;0.73;0.23;;;27.50;32.80;;;;;;4937343;29;20611;-71
2022/12/15 03:26:48;;;;;;;0.30;0.30;;;27.30;29.30;;;;;;4936205;29;20184;-69
2022/12/15 03:29:19;;;;;;;2.20;0.67;;;26.80;30.60;;;;;;4936603;29;20228;-68
2022/12/15 03:31:46;;;;;;;3.30;0.60;;;26.90;39.70;;;;;;4937050;29;20192;-70
2022/12/15 03:34:14;;;;;;;2.67;0.70;;;26.80;40.10;;;;;;4936892;29;20644;-70
2022/12/15 03:36:41;;;;;;;2.83;0.70;;;26.60;42.50;;;;;;4935568;29;20189;-70
2022/12/15 03:39:09;;;;;;;5.20;0.70;;;26.20;43.90;;;;;;4936181;29;20184;-69
2022/12/15 03:41:36;;;;;;;4.73;1.00;;;25.80;41.50;;;;;;4935733;29;20255;-69
2022/12/15 03:44:04;;;;;;;4.30;0.80;;;25.70;42.40;;;;;;4936283;29;20176;-69
2022/12/15 03:46:31;;;;;;;2.17;0.50;;;25.60;42.30;;;;;;4935953;29;20192;-70
2022/12/15 03:48:59;;;;;;;2.20;0.80;;;25.40;45.40;;;;;;4936441;29;20821;-69
2022/12/15 03:51:26;;;;;;;3.33;0.80;;;25.30;47.90;;;;;;4935801;29;20216;-70
2022/12/15 03:53:54;;;;;;;2.20;0.60;;;25.30;49.90;;;;;;4936454;29;20192;-69
2022/12/15 03:56:21;;;;;;;2.40;0.77;;;25.30;48.10;;;;;;4935826;29;20219;-69
2022/12/15 03:58:48;;;;;;;1.77;0.60;;;25.40;48.10;;;;;;4935909;29;20196;-69
2022/12/15 04:01:22;;;;;;;1.97;0.67;;;25.40;47.70;;;;;;4935844;29;20216;-69
2022/12/15 04:03:49;;;;;;;2.10;0.67;;;25.20;46.00;;;;;;4936246;29;20181;-71
2022/12/15 04:06:17;;;;;;;1.47;0.60;;;25.20;47.40;;;;;;4935485;29;20223;-71
2022/12/15 04:08:44;;;;;;;2.83;0.80;;;25.20;50.20;;;;;;4935874;29;20189;-70
2022/12/15 04:11:12;;;;;;;4.27;1.00;;;24.80;54.30;;;;;;4935929;29;20180;-70
2022/12/15 04:13:39;;;;;;;5.87;1.40;;;24.50;55.90;;;;;;4935493;29;20180;-71
2022/12/15 04:16:07;;;;;;;5.60;1.47;;;24.30;58.30;;;;;;4935502;29;20195;-69
2022/12/15 04:18:35;;;;;;;3.87;0.90;;;24.10;63.70;;;;;;4935170;29;20196;-72
2022/12/15 04:21:02;;;;;;;6.00;1.23;;;24.00;63.40;;;;;;4934761;29;20266;-71
2022/12/15 04:23:29;;;;;;;5.57;1.17;;;25.20;70.00;;;;;;4939901;29;20262;-70
2022/12/15 05:32:24;;;;;;;17.83;1.90;;;24.60;88.30;;;;;;4934631;29;20199;-70
2022/12/15 05:34:51;;;;;;;7.37;1.63;;;24.70;89.90;;;;;;4933893;29;20279;-69
2022/12/15 05:37:18;;;;;;;9.93;1.43;;;24.50;89.40;;;;;;4934465;29;20252;-70
2022/12/15 05:39:46;;;;;;;6.73;1.60;;;24.30;91.90;;;;;;4934177;29;20647;-70
2022/12/15 05:42:13;;;;;;;8.77;1.90;;;24.30;91.80;;;;;;4934050;29;20224;-69
2022/12/15 05:44:40;;;;;;;11.13;2.13;;;24.80;91.00;;;;;;4934109;29;20647;-69
2022/12/15 05:47:08;;;;;;;7.60;1.60;;;25.30;89.80;;;;;;4934261;29;20188;-69
2022/12/15 05:49:35;;;;;;;6.53;1.63;;;25.00;82.80;;;;;;4934166;29;20263;-68
2022/12/15 05:52:03;;;;;;;5.77;1.57;;;24.70;85.80;;;;;;4933948;29;20719;-71
2022/12/15 05:54:30;;;;;;;8.80;2.40;;;24.30;89.00;;;;;;4934266;29;20647;-70
2022/12/15 05:56:57;;;;;;;11.07;1.90;;;23.80;87.00;;;;;;4932898;29;20676;-70
2022/12/15 05:59:25;;;;;;;8.17;1.80;;;23.10;90.00;;;;;;4934047;29;20184;-69
2022/12/15 06:01:52;;;;;;;7.43;1.67;;;22.90;91.10;;;;;;4934375;29;20219;-69
2022/12/15 06:04:20;;;;;;;11.30;1.30;;;22.90;92.40;;;;;;4934606;29;20202;-69
2022/12/15 06:06:47;;;;;;;6.73;1.40;;;23.20;92.80;;;;;;4936882;29;20271;-70
2022/12/15 06:09:14;;;;;;;9.07;2.13;;;23.60;94.10;;;;;;4937818;29;20191;-69
2022/12/15 06:11:43;;;;;;;7.73;1.63;;;23.80;91.50;;;;;;4937773;29;20177;-71
2022/12/15 06:14:11;;;;;;;8.00;1.93;;;24.10;93.10;;;;;;4937857;29;20184;-69
2022/12/15 06:16:38;;;;;;;8.37;1.70;;;24.20;94.20;;;;;;4938066;29;20231;-70
2022/12/15 06:19:05;;;;;;;4.07;1.30;;;24.30;92.60;;;;;;4937687;29;20526;-69
2022/12/15 06:21:35;;;;;;;6.47;1.80;;;24.10;93.00;;;;;;4937875;29;20207;-70
2022/12/15 06:24:04;;;;;;;5.60;1.80;;;24.10;92.10;;;;;;4937499;29;20648;-69
2022/12/15 06:26:37;;;;;;;11.17;2.10;;;23.90;91.60;;;;;;4937630;29;20284;-69
2022/12/15 06:29:10;;;;;;;6.90;1.87;;;24.10;92.30;;;;;;4937848;29;20705;-69
2022/12/15 06:31:38;;;;;;;13.10;2.10;;;24.20;92.40;;;;;;4937667;29;20215;-69
2022/12/15 06:34:08;;;;;;;10.77;1.53;;;24.20;93.00;;;;;;4937149;29;20579;-69
2022/12/15 06:36:36;;;;;;;8.40;1.43;;;24.20;93.60;;;;;;4937684;29;20270;-70
2022/12/15 06:39:07;;;;;;;9.97;2.23;;;24.10;92.90;;;;;;4937683;29;20191;-70
2022/12/15 06:41:34;;;;;;;7.23;1.60;;;24.00;94.00;;;;;;4937022;29;20251;-70
2022/12/15 06:44:02;;;;;;;12.67;1.73;;;23.70;93.40;;;;;;4937167;29;20212;-70
2022/12/15 06:46:31;;;;;;;7.77;1.77;;;23.60;94.70;;;;;;4918430;29;20181;-70
2022/12/15 06:48:59;;;;;;;11.17;2.27;;;23.60;97.30;;;;;;4931987;29;20184;-69
2022/12/15 06:51:27;;;;;;;8.53;1.53;;;23.60;95.20;;;;;;4937116;29;20588;-69
2022/12/15 06:53:55;;;;;;;4.70;1.40;;;23.40;96.80;;;;;;4937476;29;20204;-70
2022/12/15 06:56:30;;;;;;;7.93;1.23;;;23.20;97.10;;;;;;4936611;29;20193;-68
2022/12/15 06:58:58;;;;;;;7.13;1.63;;;23.30;98.00;;;;;;4937223;29;20195;-69
2022/12/15 07:01:26;;;;;;;8.67;1.90;;;23.40;96.60;;;;;;4936777;29;20238;-69
2022/12/15 07:03:53;;;;;;;7.17;1.57;;;23.10;95.80;;;;;;4936459;29;20208;-68
2022/12/15 07:06:21;;;;;;;11.27;1.77;;;23.20;96.50;;;;;;4936712;29;20708;-71
2022/12/15 07:08:52;;;;;;;7.03;1.40;;;23.10;96.40;;;;;;4936992;29;20197;-69
2022/12/15 07:11:21;;;;;;;7.33;1.43;;;23.10;97.50;;;;;;4936719;29;20667;-70
2022/12/15 07:13:50;;;;;;;7.80;1.40;;;23.10;98.20;;;;;;4937128;29;20252;-71
2022/12/15 07:16:18;;;;;;;8.10;1.80;;;23.00;98.40;;;;;;4934285;29;20229;-69
2022/12/15 07:18:46;;;;;;;6.73;1.50;;;22.70;98.50;;;;;;4936672;29;20189;-69
2022/12/15 07:21:13;;;;;;;8.17;1.97;;;22.50;99.90;;;;;;4936476;29;20694;-71
2022/12/15 07:23:42;;;;;;;7.60;1.80;;;22.50;99.90;;;;;;4936512;29;20204;-69
2022/12/15 07:26:10;;;;;;;14.67;2.43;;;22.30;99.90;;;;;;4936230;29;20210;-71
2022/12/15 07:28:38;;;;;;;10.50;2.17;;;21.90;99.90;;;;;;4936764;29;20184;-71
2022/12/15 07:31:07;;;;;;;12.93;2.17;;;21.70;99.90;;;;;;4936616;29;20187;-69
2022/12/15 07:33:35;;;;;;;13.77;2.30;;;21.80;99.90;;;;;;4936299;29;20180;-68
2022/12/15 07:36:03;;;;;;;13.43;2.27;;;21.80;99.90;;;;;;4936233;29;20231;-68
2022/12/15 07:38:31;;;;;;;13.37;2.40;;;21.80;99.90;;;;;;4936253;29;20193;-70
2022/12/15 07:41:03;;;;;;;15.33;3.07;;;21.80;99.90;;;;;;4935986;29;20219;-68
2022/12/15 07:43:31;;;;;;;15.30;3.27;;;21.70;99.90;;;;;;4936585;29;20184;-68
2022/12/15 07:45:58;;;;;;;14.93;2.70;;;21.40;99.90;;;;;;4935857;29;20192;-69
2022/12/15 07:48:26;;;;;;;15.17;2.73;;;21.20;99.90;;;;;;4936175;29;20203;-68
2022/12/15 07:50:56;;;;;;;12.40;2.30;;;21.30;99.90;;;;;;4936824;29;20177;-70
2022/12/15 07:53:26;;;;;;;15.13;2.73;;;21.30;99.90;;;;;;4936082;29;20290;-68
2022/12/15 07:55:56;;;;;;;13.77;2.50;;;21.10;99.90;;;;;;4935358;29;20184;-68
2022/12/15 07:58:23;;;;;;;9.30;2.57;;;20.90;99.90;;;;;;4936257;29;20172;-70
2022/12/15 08:00:51;;;;;;;11.20;2.20;;;20.50;99.90;;;;;;4935528;29;20271;-70
2022/12/15 08:03:18;;;;;;;10.47;2.40;;;20.20;99.90;;;;;;4935917;29;20265;-69
2022/12/15 08:05:46;;;;;;;8.73;2.23;;;20.10;99.90;;;;;;4935891;29;20552;-69
2022/12/15 08:08:13;;;;;;;10.23;2.43;;;20.00;99.90;;;;;;4935782;29;20238;-70
2022/12/15 08:10:40;;;;;;;15.37;3.10;;;19.80;99.90;;;;;;4935483;29;20202;-68
2022/12/15 08:13:08;;;;;;;17.40;3.33;;;19.80;99.90;;;;;;4935803;29;20712;-70
2022/12/15 08:15:36;;;;;;;12.90;2.37;;;19.70;99.90;;;;;;4935867;29;20176;-68
2022/12/15 08:18:08;;;;;;;13.53;2.67;;;19.50;99.90;;;;;;4935537;29;20214;-68
2022/12/15 08:20:35;;;;;;;12.23;2.83;;;19.50;99.90;;;;;;4935662;29;20224;-68
2022/12/15 08:23:03;;;;;;;11.40;2.80;;;19.30;99.90;;;;;;4935185;29;20244;-71
2022/12/15 08:25:31;;;;;;;7.93;2.50;;;19.30;99.90;;;;;;4934560;29;20182;-70
2022/12/15 08:27:59;;;;;;;14.00;3.27;;;19.20;99.90;;;;;;4935298;29;20188;-71
2022/12/15 08:30:26;;;;;;;19.93;3.00;;;19.20;99.90;;;;;;4935369;29;20534;-68
2022/12/15 08:32:54;;;;;;;12.57;2.97;;;19.20;99.90;;;;;;4935653;29;20177;-68
2022/12/15 08:35:21;;;;;;;24.50;3.20;;;19.20;99.90;;;;;;4935386;29;20186;-68
2022/12/15 08:37:49;;;;;;;10.93;2.30;;;19.20;99.90;;;;;;4935428;29;20260;-70
2022/12/15 08:40:16;;;;;;;16.90;3.20;;;19.30;99.90;;;;;;4935168;29;20192;-68
2022/12/15 08:42:44;;;;;;;10.97;2.77;;;19.30;99.90;;;;;;4935536;29;20216;-70
2022/12/15 08:45:11;;;;;;;14.13;2.97;;;19.30;99.90;;;;;;4935110;29;20188;-70
2022/12/15 08:47:39;;;;;;;15.00;2.67;;;19.20;99.90;;;;;;4934782;29;20672;-68
2022/12/15 08:50:08;;;;;;;12.37;2.73;;;19.10;99.90;;;;;;4933550;29;20192;-68
2022/12/15 08:52:40;;;;;;;23.27;3.80;;;19.00;99.90;;;;;;4934862;29;20334;-68
2022/12/15 08:55:10;;;;;;;12.80;2.77;;;18.80;99.90;;;;;;4935148;29;20177;-70
2022/12/15 08:57:39;;;;;;;13.70;2.60;;;18.80;99.90;;;;;;4917705;29;20188;-69
2022/12/15 09:00:09;;;;;;;12.03;2.60;;;18.70;99.90;;;;;;4934289;29;20275;-68
2022/12/15 09:02:37;;;;;;;19.30;2.80;;;18.50;99.90;;;;;;4935047;29;20683;-69
2022/12/15 09:05:05;;;;;;;12.10;2.80;;;18.50;99.90;;;;;;4934402;29;20244;-73
2022/12/15 09:07:33;;;;;;;21.47;3.30;;;18.50;99.90;;;;;;4934409;29;20285;-72
2022/12/15 09:10:01;;;;;;;17.83;3.70;;;18.50;99.90;;;;;;4934917;29;20248;-69
2022/12/15 09:12:28;;;;;;;14.77;3.17;;;18.40;99.90;;;;;;4934895;29;20180;-71
2022/12/15 09:14:56;;;;;;;15.53;3.20;;;18.40;99.90;;;;;;4934429;29;20619;-71
2022/12/15 09:17:24;;;;;;;18.70;3.57;;;18.30;99.90;;;;;;4934671;29;20252;-69
2022/12/15 09:19:52;;;;;;;16.43;3.03;;;18.20;99.90;;;;;;4934272;29;20190;-69
2022/12/15 09:22:20;;;;;;;12.33;3.10;;;18.20;99.90;;;;;;4917288;29;20232;-69
2022/12/15 09:24:49;;;;;;;16.50;3.63;;;18.10;99.90;;;;;;4934543;29;20265;-70
2022/12/15 09:27:18;;;;;;;14.93;2.90;;;17.90;99.90;;;;;;4934192;29;20371;-70
2022/12/15 09:29:46;;;;;;;12.97;3.10;;;17.90;99.90;;;;;;4933766;29;20190;-68
2022/12/15 09:32:14;;;;;;;14.97;3.33;;;17.90;99.90;;;;;;4934766;29;20182;-69
2022/12/15 09:34:41;;;;;;;17.83;2.73;;;17.80;99.90;;;;;;4934052;29;20184;-70
2022/12/15 09:37:09;;;;;;;21.93;3.77;;;17.80;99.90;;;;;;4934038;29;20185;-69
2022/12/15 09:39:38;;;;;;;24.33;3.27;;;17.80;99.90;;;;;;4933741;29;20176;-70
2022/12/15 09:42:05;;;;;;;17.60;4.27;;;17.80;99.90;;;;;;4934557;29;20231;-69
2022/12/15 09:44:33;;;;;;;17.23;3.57;;;17.70;99.90;;;;;;4934040;29;20299;-69
2022/12/15 09:47:16;;;;;;;20.43;3.77;;;17.80;99.90;;;;;;4933955;29;20188;-68
2022/12/15 09:49:53;;;;;;;20.03;3.10;;;17.80;99.90;;;;;;4934489;29;20187;-69
2022/12/15 09:52:34;;;;;;;18.63;3.37;;;17.80;99.90;;;;;;4934104;29;20276;-70
2022/12/15 09:55:12;;;;;;;15.53;2.87;;;17.80;99.90;;;;;;4935853;29;20200;-69
2022/12/15 09:57:55;;;;;;;24.93;4.50;;;17.80;99.90;;;;;;4934344;29;20660;-68
2022/12/15 10:00:29;;;;;;;22.17;4.17;;;17.70;99.90;;;;;;4934099;29;20176;-70
2022/12/15 10:03:06;;;;;;;16.93;3.30;;;17.80;99.90;;;;;;4934083;29;20629;-68
2022/12/15 10:05:54;;;;;;;19.30;4.17;;;17.80;99.90;;;;;;4934573;29;20591;-71
2022/12/15 10:08:27;;;;;;;21.13;3.73;;;17.90;99.90;;;;;;4934013;29;20184;-69
2022/12/15 10:10:55;;;;;;;14.90;2.90;;;17.80;99.90;;;;;;4934431;29;20184;-69
2022/12/15 10:13:44;;;;;;;19.63;3.23;;;17.80;99.90;;;;;;4934017;29;20654;-68
2022/12/15 10:16:24;;;;;;;16.50;3.53;;;17.80;99.90;;;;;;4933868;29;20200;-68
2022/12/15 10:19:15;;;;;;;17.47;3.43;;;17.90;99.90;;;;;;4934314;29;20180;-68
2022/12/15 10:21:43;;;;;;;12.70;3.53;;;17.80;99.90;;;;;;4933845;29;20263;-71
2022/12/15 10:24:22;;;;;;;16.07;3.10;;;17.70;99.90;;;;;;4933773;29;20192;-69
2022/12/15 10:26:57;;;;;;;15.73;3.10;;;17.70;99.90;;;;;;4933088;29;20184;-69
2022/12/15 10:29:35;;;;;;;14.77;2.77;;;17.60;99.90;;;;;;4933269;29;20557;-69
2022/12/15 10:32:17;;;;;;;16.90;3.87;;;17.60;99.90;;;;;;4915166;29;20194;-69
2022/12/15 10:34:45;;;;;;;14.17;3.60;;;17.50;99.90;;;;;;4930508;29;20239;-69
2022/12/15 10:37:19;;;;;;;12.67;3.37;;;17.50;99.90;;;;;;4933701;29;20650;-71
2022/12/15 10:39:51;;;;;;;17.30;2.97;;;17.50;99.90;;;;;;4934008;29;20228;-70
2022/12/15 10:42:20;;;;;;;9.63;2.83;;;17.50;99.90;;;;;;4933815;29;20227;-68
2022/12/15 10:44:50;;;;;;;19.87;3.03;;;17.50;99.90;;;;;;4933316;29;20189;-69
2022/12/15 10:47:27;;;;;;;10.37;2.83;;;17.40;99.90;;;;;;4934269;29;20312;-69
2022/12/15 10:50:14;;;;;;;10.57;2.53;;;17.40;99.90;;;;;;4934095;29;20570;-69
2022/12/15 10:52:42;;;;;;;13.80;2.80;;;17.50;99.90;;;;;;4936707;29;20960;-68
2022/12/15 10:55:27;;;;;;;17.23;3.03;;;17.40;99.90;;;;;;4937337;29;20189;-69
2022/12/15 10:58:01;;;;;;;17.33;3.43;;;17.40;99.90;;;;;;4937240;29;20218;-70
2022/12/15 11:00:33;;;;;;;20.63;3.37;;;17.50;99.90;;;;;;4936772;29;20275;-69
2022/12/15 11:03:01;;;;;;;15.53;2.77;;;17.40;99.90;;;;;;4937054;29;20299;-69
2022/12/15 11:05:29;;;;;;;14.80;2.63;;;17.40;99.90;;;;;;4936727;29;20230;-70
2022/12/15 11:08:15;;;;;;;13.90;2.47;;;17.50;99.90;;;;;;4936493;29;20215;-71
2022/12/15 11:14:02;;;;;;;14.67;2.80;;;17.50;99.90;;;;;;4936888;29;20583;-70
2022/12/15 11:16:31;;;;;;;16.00;3.20;;;17.40;99.90;;;;;;4937257;29;20185;-69
2022/12/15 11:19:13;;;;;;;14.97;2.87;;;17.30;99.90;;;;;;4937001;29;20187;-68
2022/12/15 11:21:47;;;;;;;16.03;3.10;;;17.30;99.90;;;;;;4936552;29;20318;-68
2022/12/15 11:24:22;;;;;;;17.40;3.00;;;17.20;99.90;;;;;;4936604;29;20253;-68
2022/12/15 11:26:57;;;;;;;16.60;2.80;;;17.30;99.90;;;;;;4936949;29;20188;-68
2022/12/15 11:29:43;;;;;;;15.93;2.90;;;17.40;99.90;;;;;;4936479;29;20192;-67
2022/12/15 11:32:12;;;;;;;16.10;3.23;;;17.40;99.90;;;;;;4936855;29;20272;-69
2022/12/15 11:34:46;;;;;;;15.33;2.30;;;17.20;99.90;;;;;;4936549;29;20192;-70
2022/12/15 11:37:31;;;;;;;13.50;2.70;;;17.20;99.90;;;;;;4935905;29;20227;-68
2022/12/15 11:40:05;;;;;;;14.83;2.50;;;17.20;99.90;;;;;;4936710;29;20185;-69
2022/12/15 11:43:02;;;;;;;10.27;2.83;;;17.20;99.90;;;;;;4936501;29;20307;-69
2022/12/15 11:45:51;;;;;;;16.77;2.63;;;17.10;99.90;;;;;;4936519;29;20569;-69
2022/12/15 11:48:25;;;;;;;11.17;2.10;;;17.10;99.90;;;;;;4936677;29;20181;-68
2022/12/15 11:51:01;;;;;;;9.67;2.50;;;16.90;99.90;;;;;;4935636;29;20187;-70
2022/12/15 11:54:01;;;;;;;11.80;2.33;;;16.90;99.90;;;;;;4936169;29;20227;-69
2022/12/15 11:56:32;;;;;;;9.67;2.53;;;17.00;99.90;;;;;;4936211;29;20207;-70
2022/12/15 11:59:26;;;;;;;14.00;3.10;;;16.90;99.90;;;;;;4935933;29;20177;-70
2022/12/15 12:02:32;;;;;;;13.73;2.63;;;16.80;99.90;;;;;;4935574;29;20212;-70
2022/12/15 12:05:37;;;;;;;7.47;2.27;;;16.80;99.90;;;;;;4935417;29;20561;-69
2022/12/15 12:08:18;;;;;;;12.17;2.40;;;16.90;99.90;;;;;;4935767;29;20588;-70
2022/12/15 12:10:55;;;;;;;16.03;2.73;;;16.90;99.90;;;;;;4936205;29;20177;-69
2022/12/15 12:13:26;;;;;;;13.73;2.73;;;16.90;99.90;;;;;;4935321;29;20188;-68
2022/12/15 12:16:19;;;;;;;16.40;3.20;;;16.90;99.90;;;;;;4936056;29;20176;-70
2022/12/15 12:19:16;;;;;;;13.20;2.80;;;16.80;99.90;;;;;;4908501;29;20654;-69
2022/12/15 12:21:47;;;;;;;15.00;2.83;;;16.90;99.90;;;;;;4934409;29;20224;-69
2022/12/15 12:24:31;;;;;;;15.03;2.87;;;16.90;99.90;;;;;;4935445;29;20545;-71
2022/12/15 12:27:02;;;;;;;14.93;3.03;;;16.90;99.90;;;;;;4935993;29;20586;-69
2022/12/15 12:29:48;;;;;;;17.27;3.00;;;16.90;99.90;;;;;;4935331;29;20665;-70
2022/12/15 12:32:47;;;;;;;15.10;3.20;;;16.70;99.90;;;;;;4935739;29;20183;-69
2022/12/15 12:35:37;;;;;;;17.73;2.37;;;16.70;99.90;;;;;;4923404;29;20241;-71
2022/12/15 12:38:11;;;;;;;16.33;3.23;;;16.60;99.90;;;;;;4935139;29;20184;-69
2022/12/15 12:40:50;;;;;;;17.93;3.07;;;16.50;99.90;;;;;;4935378;29;20173;-69
2022/12/15 12:43:31;;;;;;;12.53;3.23;;;16.60;99.90;;;;;;4935073;29;20196;-69
2022/12/15 12:46:18;;;;;;;12.73;3.17;;;16.60;99.90;;;;;;4929615;29;20181;-68
2022/12/15 12:48:55;;;;;;;14.30;3.07;;;16.60;99.90;;;;;;4935176;29;20180;-68
2022/12/15 12:51:25;;;;;;;12.07;3.10;;;16.70;99.90;;;;;;4934732;29;20189;-69
2022/12/15 12:53:53;;;;;;;14.77;3.10;;;16.70;99.90;;;;;;4934804;29;20236;-69
2022/12/15 12:56:44;;;;;;;14.60;2.50;;;16.70;99.90;;;;;;4935015;29;20192;-68
2022/12/15 12:59:35;;;;;;;16.33;2.60;;;16.70;99.90;;;;;;4934791;29;20188;-68
2022/12/15 13:02:25;;;;;;;11.73;2.10;;;16.60;99.90;;;;;;4935078;29;20227;-69
2022/12/15 13:05:21;;;;;;;12.97;2.30;;;16.60;99.90;;;;;;4933732;29;20200;-69
2022/12/15 13:08:16;;;;;;;8.17;2.00;;;16.50;99.90;;;;;;4933955;29;20678;-68
2022/12/15 13:10:47;;;;;;;5.57;2.20;;;16.40;99.90;;;;;;4934996;29;20685;-68
2022/12/15 13:13:30;;;;;;;6.57;2.10;;;16.40;99.90;;;;;;4933765;29;20184;-67
2022/12/15 13:16:11;;;;;;;12.97;2.50;;;16.10;99.90;;;;;;4934180;29;20232;-68
2022/12/15 13:19:02;;;;;;;9.27;2.00;;;15.70;99.90;;;;;;4934979;29;20181;-67
2022/12/15 13:21:51;;;;;;;9.10;1.70;;;15.50;99.90;;;;;;4935960;29;20214;-68
2022/12/15 13:24:33;;;;;;;14.53;2.00;;;15.40;99.90;;;;;;4935369;29;20664;-71
2022/12/15 13:27:09;;;;;;;8.63;1.70;;;15.30;99.90;;;;;;4935955;29;20194;-67
2022/12/15 13:29:57;;;;;;;10.90;2.03;;;15.30;99.90;;;;;;4935904;29;20260;-67
2022/12/15 13:32:41;;;;;;;8.93;1.83;;;15.20;99.90;;;;;;4935654;29;20196;-68
2022/12/15 13:35:15;;;;;;;14.17;2.20;;;15.30;99.90;;;;;;4916898;29;20192;-70
2022/12/15 13:37:46;;;;;;;9.67;1.93;;;15.30;99.90;;;;;;4931086;29;20200;-68
2022/12/15 13:40:37;;;;;;;5.37;1.70;;;15.30;99.90;;;;;;4935569;29;20180;-68
2022/12/15 13:43:05;;;;;;;11.33;2.13;;;15.30;99.90;;;;;;4933943;29;20588;-68
2022/12/15 13:45:48;;;;;;;7.37;1.87;;;15.40;99.90;;;;;;4934401;29;20188;-71
2022/12/15 13:48:42;;;;;;;7.13;1.80;;;15.30;99.90;;;;;;4935630;29;20273;-68
2022/12/15 13:51:21;;;;;;;7.67;1.80;;;15.40;99.90;;;;;;4935895;29;20252;-68
2022/12/15 13:54:18;;;;;;;5.93;1.50;;;15.50;99.90;;;;;;4935330;29;20270;-70
2022/12/15 13:56:58;;;;;;;7.77;1.73;;;15.50;99.90;;;;;;4929242;29;20213;-67
2022/12/15 13:59:37;;;;;;;12.17;1.73;;;15.40;99.90;;;;;;4935537;29;20180;-68
2022/12/15 14:02:41;;;;;;;5.57;1.60;;;15.40;99.90;;;;;;4935418;29;20573;-67
2022/12/15 14:05:24;;;;;;;7.97;1.50;;;15.40;99.90;;;;;;4885425;29;20203;-67
2022/12/15 14:07:57;;;;;;;6.23;1.87;;;15.40;99.90;;;;;;4916743;29;20178;-67
2022/12/15 14:10:40;;;;;;;5.23;1.77;;;15.30;99.90;;;;;;4923276;29;20268;-69
2022/12/15 14:13:14;;;;;;;10.13;1.77;;;15.20;99.90;;;;;;4935629;29;20270;-67
2022/12/15 14:15:48;;;;;;;7.93;1.63;;;15.20;99.90;;;;;;4935839;29;20191;-67
2022/12/15 14:18:28;;;;;;;8.53;1.63;;;15.10;99.90;;;;;;4935867;29;20183;-67
2022/12/15 14:20:57;;;;;;;7.83;1.77;;;15.20;99.90;;;;;;4933946;29;20688;-70
2022/12/15 14:23:27;;;;;;;6.60;1.30;;;15.20;99.90;;;;;;4932659;29;20199;-68
2022/12/15 14:26:07;;;;;;;7.37;1.63;;;15.10;99.90;;;;;;4937393;29;20186;-67
2022/12/15 14:28:38;;;;;;;5.07;1.80;;;15.00;99.90;;;;;;4939215;29;20188;-67
2022/12/15 14:31:15;;;;;;;10.10;1.17;;;15.00;99.90;;;;;;4939249;29;20173;-67
2022/12/15 14:33:46;;;;;;;9.93;1.90;;;15.00;99.90;;;;;;4938815;29;20227;-68
2022/12/15 14:36:19;;;;;;;6.53;1.77;;;14.80;99.90;;;;;;4938908;29;20184;-67
2022/12/15 14:38:57;;;;;;;6.60;1.73;;;14.80;99.90;;;;;;4939524;29;20324;-68
2022/12/15 14:41:39;;;;;;;3.57;1.53;;;14.70;99.90;;;;;;4938500;29;20297;-70
2022/12/15 14:44:38;;;;;;;7.37;1.47;;;14.60;99.90;;;;;;4938728;29;20222;-67
2022/12/15 14:47:15;;;;;;;8.60;1.50;;;14.50;99.90;;;;;;4938884;29;20183;-69
2022/12/15 14:49:45;;;;;;;8.37;1.70;;;14.50;99.90;;;;;;4938281;29;20674;-67
2022/12/15 14:52:26;;;;;;;6.73;1.40;;;14.50;99.90;;;;;;4938303;29;20246;-68
2022/12/15 14:54:59;;;;;;;5.70;1.60;;;14.50;99.90;;;;;;4938314;29;20194;-68
2022/12/15 14:57:39;;;;;;;4.43;1.40;;;14.60;99.90;;;;;;4938455;29;20271;-68
2022/12/15 15:00:26;;;;;;;9.17;1.67;;;14.80;99.90;;;;;;4938186;29;20180;-68
2022/12/15 15:03:17;;;;;;;10.57;2.17;;;14.80;99.90;;;;;;4938053;29;20222;-68
2022/12/15 15:06:11;;;;;;;6.43;1.43;;;14.80;99.90;;;;;;4938357;29;20263;-68
2022/12/15 15:08:51;;;;;;;4.73;1.47;;;14.70;99.90;;;;;;4936823;29;20548;-68
2022/12/15 15:11:40;;;;;;;8.00;1.70;;;14.80;99.90;;;;;;4938121;29;20271;-69
2022/12/15 15:14:26;;;;;;;5.93;1.33;;;14.70;99.90;;;;;;4937988;29;20198;-67
2022/12/15 15:17:08;;;;;;;6.90;1.30;;;14.60;99.90;;;;;;4937780;29;20191;-68
2022/12/15 15:19:38;;;;;;;8.87;1.73;;;14.50;99.90;;;;;;4936579;29;20647;-67
2022/12/15 15:22:11;;;;;;;8.03;1.50;;;14.60;99.90;;;;;;4938010;29;20235;-71
2022/12/15 15:24:39;;;;;;;7.90;1.37;;;14.60;99.90;;;;;;4937898;29;20180;-67
2022/12/15 15:27:38;;;;;;;4.93;1.40;;;14.60;99.90;;;;;;4938205;29;20191;-66
2022/12/15 15:30:20;;;;;;;5.43;1.40;;;14.70;99.90;;;;;;4906396;29;20232;-67
2022/12/15 15:33:00;;;;;;;5.33;1.53;;;14.70;99.90;;;;;;4937212;29;20674;-66
2022/12/15 15:35:33;;;;;;;8.73;1.77;;;14.80;99.90;;;;;;4935247;29;20186;-67
2022/12/15 15:38:25;;;;;;;7.17;1.30;;;14.70;99.90;;;;;;4936731;29;20227;-68
2022/12/15 15:40:55;;;;;;;7.40;1.60;;;14.70;99.90;;;;;;4937787;29;20176;-67